sensor_id;sensor_type;location;lat;lon;timestamp;pressure;altitude;pressure_sealevel;temperature;humidity
59411;BME280;45215;32.610;-115.482;2022-10-28T00:02:11;101507.72;;;20.37;58.81
59411;BME280;45215;32.610;-115.482;2022-10-28T00:04:36;101513.22;;;20.54;60.03
59411;BME280;45215;32.610;-115.482;2022-10-28T00:07:02;101511.41;;;20.70;59.63
59411;BME280;45215;32.610;-115.482;2022-10-28T00:09:28;101506.94;;;20.87;58.78
59411;BME280;45215;32.610;-115.482;2022-10-28T00:11:54;101514.69;;;20.90;53.85
59411;BME280;45215;32.610;-115.482;2022-10-28T00:14:19;101513.75;;;20.31;54.06
59411;BME280;45215;32.610;-115.482;2022-10-28T00:16:45;101522.22;;;20.44;58.17
59411;BME280;45215;32.610;-115.482;2022-10-28T00:19:11;101519.97;;;20.58;59.10
59411;BME280;45215;32.610;-115.482;2022-10-28T00:21:38;101523.56;;;20.75;58.96
59411;BME280;45215;32.610;-115.482;2022-10-28T00:24:05;101529.19;;;20.89;58.23
59411;BME280;45215;32.610;-115.482;2022-10-28T00:26:31;101523.31;;;20.94;53.84
59411;BME280;45215;32.610;-115.482;2022-10-28T00:29:08;101530.25;;;20.28;53.71
59411;BME280;45215;32.610;-115.482;2022-10-28T00:31:34;101531.47;;;20.42;58.28
59411;BME280;45215;32.610;-115.482;2022-10-28T00:34:00;101533.44;;;20.58;59.26
59411;BME280;45215;32.610;-115.482;2022-10-28T00:36:28;101538.06;;;20.74;58.64
59411;BME280;45215;32.610;-115.482;2022-10-28T00:38:56;101537.97;;;20.91;57.93
59411;BME280;45215;32.610;-115.482;2022-10-28T00:43:53;101536.78;;;20.25;52.31
59411;BME280;45215;32.610;-115.482;2022-10-28T00:46:27;101536.34;;;20.38;58.22
59411;BME280;45215;32.610;-115.482;2022-10-28T00:48:57;101538.13;;;20.56;59.18
59411;BME280;45215;32.610;-115.482;2022-10-28T00:51:23;101544.44;;;20.72;58.84
59411;BME280;45215;32.610;-115.482;2022-10-28T00:53:50;101536.13;;;20.92;58.09
59411;BME280;45215;32.610;-115.482;2022-10-28T00:56:17;101538.97;;;20.90;52.90
59411;BME280;45215;32.610;-115.482;2022-10-28T00:58:44;101542.38;;;20.32;54.56
59411;BME280;45215;32.610;-115.482;2022-10-28T01:01:11;101548.72;;;20.49;58.68
59411;BME280;45215;32.610;-115.482;2022-10-28T01:03:37;101544.59;;;20.63;59.79
59411;BME280;45215;32.610;-115.482;2022-10-28T01:06:03;101547.66;;;20.76;59.30
59411;BME280;45215;32.610;-115.482;2022-10-28T01:08:29;101544.06;;;20.93;58.51
59411;BME280;45215;32.610;-115.482;2022-10-28T01:13:32;101556.88;;;20.31;56.70
59411;BME280;45215;32.610;-115.482;2022-10-28T01:18:48;101552.72;;;20.71;58.37
59411;BME280;45215;32.610;-115.482;2022-10-28T01:23:47;101561.97;;;19.98;57.51
59411;BME280;45215;32.610;-115.482;2022-10-28T01:33:41;101572.16;;;20.83;60.40
59411;BME280;45215;32.610;-115.482;2022-10-28T01:36:14;101579.78;;;20.95;58.44
59411;BME280;45215;32.610;-115.482;2022-10-28T01:41:21;101576.06;;;20.36;58.40
59411;BME280;45215;32.610;-115.482;2022-10-28T01:44:08;101581.56;;;20.53;60.52
59411;BME280;45215;32.610;-115.482;2022-10-28T01:46:45;101592.47;;;20.69;59.94
59411;BME280;45215;32.610;-115.482;2022-10-28T01:52:02;101594.66;;;21.00;56.17
59411;BME280;45215;32.610;-115.482;2022-10-28T01:54:31;101595.44;;;20.32;52.04
59411;BME280;45215;32.610;-115.482;2022-10-28T01:56:57;101603.03;;;20.36;57.97
59411;BME280;45215;32.610;-115.482;2022-10-28T01:59:26;101605.00;;;20.52;59.41
59411;BME280;45215;32.610;-115.482;2022-10-28T02:01:56;101608.97;;;20.66;59.67
59411;BME280;45215;32.610;-115.482;2022-10-28T02:04:22;101603.69;;;20.82;58.75
59411;BME280;45215;32.610;-115.482;2022-10-28T02:06:51;101605.44;;;21.00;57.83
59411;BME280;45215;32.610;-115.482;2022-10-28T02:14:32;101616.56;;;20.44;58.98
59411;BME280;45215;32.610;-115.482;2022-10-28T02:22:14;101628.50;;;20.94;57.52
59411;BME280;45215;32.610;-115.482;2022-10-28T02:27:20;101623.22;;;20.32;53.54
59411;BME280;45215;32.610;-115.482;2022-10-28T02:29:57;101628.19;;;20.45;58.22
59411;BME280;45215;32.610;-115.482;2022-10-28T02:32:25;101629.47;;;20.59;59.65
59411;BME280;45215;32.610;-115.482;2022-10-28T02:34:53;101628.75;;;20.75;58.67
59411;BME280;45215;32.610;-115.482;2022-10-28T02:37:23;101634.75;;;20.94;58.03
59411;BME280;45215;32.610;-115.482;2022-10-28T02:39:55;101631.13;;;20.52;50.84
59411;BME280;45215;32.610;-115.482;2022-10-28T02:42:40;101632.63;;;20.28;56.64
59411;BME280;45215;32.610;-115.482;2022-10-28T02:45:10;101632.72;;;20.44;59.10
59411;BME280;45215;32.610;-115.482;2022-10-28T02:47:38;101644.78;;;20.58;59.26
59411;BME280;45215;32.610;-115.482;2022-10-28T02:50:06;101641.38;;;20.74;58.16
59411;BME280;45215;32.610;-115.482;2022-10-28T02:52:33;101645.16;;;20.89;57.62
59411;BME280;45215;32.610;-115.482;2022-10-28T02:55:00;101643.25;;;20.56;50.75
59411;BME280;45215;32.610;-115.482;2022-10-28T02:57:29;101653.47;;;20.26;56.29
59411;BME280;45215;32.610;-115.482;2022-10-28T02:59:57;101656.47;;;20.41;58.96
59411;BME280;45215;32.610;-115.482;2022-10-28T03:02:24;101660.44;;;20.55;59.35
59411;BME280;45215;32.610;-115.482;2022-10-28T03:04:50;101652.81;;;20.68;58.19
59411;BME280;45215;32.610;-115.482;2022-10-28T03:07:16;101656.59;;;20.83;57.31
59411;BME280;45215;32.610;-115.482;2022-10-28T03:09:42;101655.13;;;20.89;53.27
59411;BME280;45215;32.610;-115.482;2022-10-28T03:12:08;101655.16;;;20.09;52.24
59411;BME280;45215;32.610;-115.482;2022-10-28T03:14:34;101662.19;;;20.20;57.65
59411;BME280;45215;32.610;-115.482;2022-10-28T03:16:59;101668.41;;;20.38;59.11
59411;BME280;45215;32.610;-115.482;2022-10-28T03:19:25;101665.97;;;20.53;58.84
59411;BME280;45215;32.610;-115.482;2022-10-28T03:21:51;101670.81;;;20.67;57.84
59411;BME280;45215;32.610;-115.482;2022-10-28T03:24:16;101669.06;;;20.84;57.06
59411;BME280;45215;32.610;-115.482;2022-10-28T03:26:42;101666.47;;;21.01;56.34
59411;BME280;45215;32.610;-115.482;2022-10-28T03:29:08;101667.75;;;20.88;51.03
59411;BME280;45215;32.610;-115.482;2022-10-28T03:31:34;101666.44;;;20.22;53.68
59411;BME280;45215;32.610;-115.482;2022-10-28T03:33:59;101676.09;;;20.33;56.90
59411;BME280;45215;32.610;-115.482;2022-10-28T03:36:25;101678.22;;;20.47;58.16
59411;BME280;45215;32.610;-115.482;2022-10-28T03:38:51;101679.69;;;20.60;57.61
59411;BME280;45215;32.610;-115.482;2022-10-28T03:41:17;101680.66;;;20.77;56.83
59411;BME280;45215;32.610;-115.482;2022-10-28T03:43:43;101682.59;;;20.92;56.35
59411;BME280;45215;32.610;-115.482;2022-10-28T03:46:09;101692.84;;;21.07;55.76
59411;BME280;45215;32.610;-115.482;2022-10-28T03:48:35;101686.66;;;21.14;53.45
59411;BME280;45215;32.610;-115.482;2022-10-28T03:51:01;101689.25;;;20.36;49.77
59411;BME280;45215;32.610;-115.482;2022-10-28T03:53:26;101696.09;;;20.31;56.23
59411;BME280;45215;32.610;-115.482;2022-10-28T03:55:56;101711.91;;;20.43;57.71
59411;BME280;45215;32.610;-115.482;2022-10-28T03:58:22;101705.25;;;20.56;57.32
59411;BME280;45215;32.610;-115.482;2022-10-28T04:00:48;101704.56;;;20.71;56.72
59411;BME280;45215;32.610;-115.482;2022-10-28T04:03:18;101707.50;;;20.86;55.92
59411;BME280;45215;32.610;-115.482;2022-10-28T04:05:44;101709.63;;;21.01;55.19
59411;BME280;45215;32.610;-115.482;2022-10-28T04:08:12;101710.41;;;21.11;55.31
59411;BME280;45215;32.610;-115.482;2022-10-28T04:10:38;101706.75;;;21.20;53.47
59411;BME280;45215;32.610;-115.482;2022-10-28T04:13:04;101703.44;;;20.38;48.97
59411;BME280;45215;32.610;-115.482;2022-10-28T04:15:31;101709.44;;;20.32;55.67
59411;BME280;45215;32.610;-115.482;2022-10-28T04:17:57;101717.28;;;20.43;57.11
59411;BME280;45215;32.610;-115.482;2022-10-28T04:20:23;101715.19;;;20.55;57.10
59411;BME280;45215;32.610;-115.482;2022-10-28T04:22:49;101723.56;;;20.70;56.16
59411;BME280;45215;32.610;-115.482;2022-10-28T04:25:15;101722.00;;;20.85;55.51
59411;BME280;45215;32.610;-115.482;2022-10-28T04:27:42;101717.91;;;20.99;54.85
59411;BME280;45215;32.610;-115.482;2022-10-28T04:30:08;101718.50;;;21.11;54.70
59411;BME280;45215;32.610;-115.482;2022-10-28T04:32:34;101718.56;;;21.19;54.43
59411;BME280;45215;32.610;-115.482;2022-10-28T04:35:00;101719.41;;;21.20;50.68
59411;BME280;45215;32.610;-115.482;2022-10-28T04:37:26;101721.75;;;20.35;50.75
59411;BME280;45215;32.610;-115.482;2022-10-28T04:39:51;101730.38;;;20.38;55.42
59411;BME280;45215;32.610;-115.482;2022-10-28T04:42:17;101720.38;;;20.48;56.85
59411;BME280;45215;32.610;-115.482;2022-10-28T04:44:43;101725.34;;;20.61;56.00
59411;BME280;45215;32.610;-115.482;2022-10-28T04:47:08;101727.50;;;20.76;55.31
59411;BME280;45215;32.610;-115.482;2022-10-28T04:49:34;101727.75;;;20.90;54.98
59411;BME280;45215;32.610;-115.482;2022-10-28T04:52:00;101730.09;;;21.03;54.42
59411;BME280;45215;32.610;-115.482;2022-10-28T04:54:26;101733.34;;;21.15;54.16
59411;BME280;45215;32.610;-115.482;2022-10-28T04:56:52;101729.53;;;20.56;47.96
59411;BME280;45215;32.610;-115.482;2022-10-28T04:59:18;101749.25;;;20.20;53.62
59411;BME280;45215;32.610;-115.482;2022-10-28T05:01:44;101743.16;;;20.36;56.57
59411;BME280;45215;32.610;-115.482;2022-10-28T05:04:10;101745.63;;;20.47;57.17
59411;BME280;45215;32.610;-115.482;2022-10-28T05:06:35;101750.47;;;20.62;56.14
59411;BME280;45215;32.610;-115.482;2022-10-28T05:09:01;101744.50;;;20.76;55.43
59411;BME280;45215;32.610;-115.482;2022-10-28T05:11:27;101751.03;;;20.91;55.00
59411;BME280;45215;32.610;-115.482;2022-10-28T05:13:53;101748.78;;;21.05;54.26
59411;BME280;45215;32.610;-115.482;2022-10-28T05:16:18;101754.94;;;21.15;54.16
59411;BME280;45215;32.610;-115.482;2022-10-28T05:18:44;101757.69;;;21.23;53.58
59411;BME280;45215;32.610;-115.482;2022-10-28T05:21:10;101751.56;;;20.51;46.92
59411;BME280;45215;32.610;-115.482;2022-10-28T05:23:36;101752.03;;;20.29;53.74
59411;BME280;45215;32.610;-115.482;2022-10-28T05:26:01;101758.72;;;20.42;55.94
59411;BME280;45215;32.610;-115.482;2022-10-28T05:28:27;101757.50;;;20.55;55.94
59411;BME280;45215;32.610;-115.482;2022-10-28T05:30:53;101754.38;;;20.67;55.05
59411;BME280;45215;32.610;-115.482;2022-10-28T05:33:19;101760.09;;;20.82;54.66
59411;BME280;45215;32.610;-115.482;2022-10-28T05:35:44;101765.91;;;20.95;54.11
59411;BME280;45215;32.610;-115.482;2022-10-28T05:38:10;101766.69;;;21.06;53.62
59411;BME280;45215;32.610;-115.482;2022-10-28T05:40:36;101765.72;;;21.15;53.43
59411;BME280;45215;32.610;-115.482;2022-10-28T05:43:02;101761.56;;;21.21;53.32
59411;BME280;45215;32.610;-115.482;2022-10-28T05:45:28;101759.94;;;21.28;53.08
59411;BME280;45215;32.610;-115.482;2022-10-28T05:47:54;101768.38;;;21.33;51.80
59411;BME280;45215;32.610;-115.482;2022-10-28T05:50:20;101766.34;;;20.47;48.24
59411;BME280;45215;32.610;-115.482;2022-10-28T05:52:49;101766.25;;;20.39;53.84
59411;BME280;45215;32.610;-115.482;2022-10-28T05:55:16;101770.56;;;20.49;55.50
59411;BME280;45215;32.610;-115.482;2022-10-28T05:57:44;101766.63;;;20.62;55.24
59411;BME280;45215;32.610;-115.482;2022-10-28T06:00:10;101763.56;;;20.75;54.40
59411;BME280;45215;32.610;-115.482;2022-10-28T06:02:36;101767.56;;;20.88;54.08
59411;BME280;45215;32.610;-115.482;2022-10-28T06:05:01;101762.75;;;21.00;53.77
59411;BME280;45215;32.610;-115.482;2022-10-28T06:07:28;101769.91;;;21.09;52.96
59411;BME280;45215;32.610;-115.482;2022-10-28T06:09:54;101771.84;;;21.17;53.06
59411;BME280;45215;32.610;-115.482;2022-10-28T06:12:19;101773.88;;;21.23;52.50
59411;BME280;45215;32.610;-115.482;2022-10-28T06:14:45;101777.63;;;21.30;52.17
59411;BME280;45215;32.610;-115.482;2022-10-28T06:17:11;101777.16;;;21.35;51.89
59411;BME280;45215;32.610;-115.482;2022-10-28T06:19:36;101774.13;;;21.38;52.02
59411;BME280;45215;32.610;-115.482;2022-10-28T06:22:02;101777.69;;;21.38;49.25
59411;BME280;45215;32.610;-115.482;2022-10-28T06:24:28;101769.03;;;20.47;48.20
59411;BME280;45215;32.610;-115.482;2022-10-28T06:26:54;101778.03;;;20.38;53.86
59411;BME280;45215;32.610;-115.482;2022-10-28T06:29:20;101777.66;;;20.50;55.33
59411;BME280;45215;32.610;-115.482;2022-10-28T06:31:46;101773.88;;;20.61;54.34
59411;BME280;45215;32.610;-115.482;2022-10-28T06:34:11;101778.91;;;20.74;53.72
59411;BME280;45215;32.610;-115.482;2022-10-28T06:36:37;101784.72;;;20.87;53.28
59411;BME280;45215;32.610;-115.482;2022-10-28T06:39:04;101787.88;;;21.01;52.93
59411;BME280;45215;32.610;-115.482;2022-10-28T06:41:30;101784.25;;;21.10;52.78
59411;BME280;45215;32.610;-115.482;2022-10-28T06:43:55;101786.16;;;21.17;52.53
59411;BME280;45215;32.610;-115.482;2022-10-28T06:46:21;101784.69;;;21.23;52.05
59411;BME280;45215;32.610;-115.482;2022-10-28T06:48:47;101790.28;;;21.30;52.04
59411;BME280;45215;32.610;-115.482;2022-10-28T06:51:13;101794.19;;;21.35;51.56
59411;BME280;45215;32.610;-115.482;2022-10-28T06:53:41;101786.28;;;21.08;46.58
59411;BME280;45215;32.610;-115.482;2022-10-28T06:56:07;101785.19;;;20.29;50.65
59411;BME280;45215;32.610;-115.482;2022-10-28T06:58:33;101795.06;;;20.38;54.07
59411;BME280;45215;32.610;-115.482;2022-10-28T07:01:03;101782.38;;;20.48;54.59
59411;BME280;45215;32.610;-115.482;2022-10-28T07:03:29;101783.69;;;20.62;53.71
59411;BME280;45215;32.610;-115.482;2022-10-28T07:05:57;101789.38;;;20.77;53.08
59411;BME280;45215;32.610;-115.482;2022-10-28T07:08:23;101783.56;;;20.90;52.66
59411;BME280;45215;32.610;-115.482;2022-10-28T07:10:52;101794.00;;;21.03;52.21
59411;BME280;45215;32.610;-115.482;2022-10-28T07:13:18;101784.25;;;21.10;51.85
59411;BME280;45215;32.610;-115.482;2022-10-28T07:15:44;101791.56;;;21.17;51.51
59411;BME280;45215;32.610;-115.482;2022-10-28T07:18:09;101786.38;;;21.24;51.49
59411;BME280;45215;32.610;-115.482;2022-10-28T07:20:35;101784.03;;;21.29;51.40
59411;BME280;45215;32.610;-115.482;2022-10-28T07:23:01;101782.72;;;21.33;50.88
59411;BME280;45215;32.610;-115.482;2022-10-28T07:25:27;101779.72;;;21.36;50.79
59411;BME280;45215;32.610;-115.482;2022-10-28T07:27:55;101783.94;;;21.39;50.57
59411;BME280;45215;32.610;-115.482;2022-10-28T07:30:21;101785.31;;;21.43;50.55
59411;BME280;45215;32.610;-115.482;2022-10-28T07:32:47;101783.31;;;21.45;50.38
59411;BME280;45215;32.610;-115.482;2022-10-28T07:35:13;101783.81;;;21.49;50.05
59411;BME280;45215;32.610;-115.482;2022-10-28T07:37:38;101786.34;;;21.50;49.64
59411;BME280;45215;32.610;-115.482;2022-10-28T07:40:05;101781.63;;;21.52;49.90
59411;BME280;45215;32.610;-115.482;2022-10-28T07:42:32;101786.91;;;21.54;50.19
59411;BME280;45215;32.610;-115.482;2022-10-28T07:44:58;101786.72;;;21.55;49.87
59411;BME280;45215;32.610;-115.482;2022-10-28T07:47:23;101785.34;;;21.51;46.99
59411;BME280;45215;32.610;-115.482;2022-10-28T07:49:50;101786.59;;;20.51;47.69
59411;BME280;45215;32.610;-115.482;2022-10-28T07:52:15;101793.91;;;20.41;52.31
59411;BME280;45215;32.610;-115.482;2022-10-28T07:54:41;101800.94;;;20.52;53.61
59411;BME280;45215;32.610;-115.482;2022-10-28T07:57:07;101793.59;;;20.62;52.70
59411;BME280;45215;32.610;-115.482;2022-10-28T07:59:33;101802.16;;;20.75;52.26
59411;BME280;45215;32.610;-115.482;2022-10-28T08:01:59;101802.75;;;20.87;52.00
59411;BME280;45215;32.610;-115.482;2022-10-28T08:04:24;101807.75;;;21.00;51.55
59411;BME280;45215;32.610;-115.482;2022-10-28T08:06:53;101815.09;;;21.07;51.05
59411;BME280;45215;32.610;-115.482;2022-10-28T08:09:19;101812.63;;;21.14;50.71
59411;BME280;45215;32.610;-115.482;2022-10-28T08:11:44;101820.09;;;21.20;50.39
59411;BME280;45215;32.610;-115.482;2022-10-28T08:14:10;101824.16;;;21.24;50.40
59411;BME280;45215;32.610;-115.482;2022-10-28T08:16:36;101823.69;;;21.29;49.95
59411;BME280;45215;32.610;-115.482;2022-10-28T08:19:02;101827.75;;;21.33;49.86
59411;BME280;45215;32.610;-115.482;2022-10-28T08:21:27;101831.97;;;21.35;50.06
59411;BME280;45215;32.610;-115.482;2022-10-28T08:23:53;101835.38;;;21.37;49.90
59411;BME280;45215;32.610;-115.482;2022-10-28T08:26:19;101838.78;;;21.39;49.93
59411;BME280;45215;32.610;-115.482;2022-10-28T08:28:45;101843.84;;;21.43;49.39
59411;BME280;45215;32.610;-115.482;2022-10-28T08:31:11;101839.16;;;21.45;49.18
59411;BME280;45215;32.610;-115.482;2022-10-28T08:33:38;101838.97;;;21.46;49.09
59411;BME280;45215;32.610;-115.482;2022-10-28T08:36:04;101846.94;;;21.48;48.92
59411;BME280;45215;32.610;-115.482;2022-10-28T08:38:30;101840.50;;;21.49;48.84
59411;BME280;45215;32.610;-115.482;2022-10-28T08:41:18;101846.63;;;21.51;48.62
59411;BME280;45215;32.610;-115.482;2022-10-28T08:46:21;101847.13;;;21.54;48.97
59411;BME280;45215;32.610;-115.482;2022-10-28T08:48:51;101852.34;;;21.56;48.45
59411;BME280;45215;32.610;-115.482;2022-10-28T08:51:21;101841.41;;;21.57;49.01
59411;BME280;45215;32.610;-115.482;2022-10-28T08:53:54;101847.50;;;21.59;48.31
59411;BME280;45215;32.610;-115.482;2022-10-28T08:58:47;101841.94;;;21.61;48.81
59411;BME280;45215;32.610;-115.482;2022-10-28T09:01:18;101837.38;;;21.61;48.31
59411;BME280;45215;32.610;-115.482;2022-10-28T09:03:46;101845.31;;;21.63;48.12
59411;BME280;45215;32.610;-115.482;2022-10-28T09:06:15;101852.41;;;21.64;48.28
59411;BME280;45215;32.610;-115.482;2022-10-28T09:08:44;101850.59;;;21.65;48.01
59411;BME280;45215;32.610;-115.482;2022-10-28T09:14:10;101854.28;;;21.64;48.00
59411;BME280;45215;32.610;-115.482;2022-10-28T09:16:46;101856.81;;;21.65;48.15
59411;BME280;45215;32.610;-115.482;2022-10-28T09:19:35;101848.72;;;21.65;47.51
59411;BME280;45215;32.610;-115.482;2022-10-28T09:22:44;101849.56;;;21.66;48.13
59411;BME280;45215;32.610;-115.482;2022-10-28T09:24:47;101846.88;;;21.66;48.07
59411;BME280;45215;32.610;-115.482;2022-10-28T09:32:18;101848.72;;;21.65;47.26
59411;BME280;45215;32.610;-115.482;2022-10-28T09:35:32;101850.41;;;21.66;47.78
59411;BME280;45215;32.610;-115.482;2022-10-28T09:38:17;101846.88;;;21.66;47.41
59411;BME280;45215;32.610;-115.482;2022-10-28T09:40:25;101853.09;;;21.66;47.73
59411;BME280;45215;32.610;-115.482;2022-10-28T09:43:16;101847.72;;;21.66;47.49
59411;BME280;45215;32.610;-115.482;2022-10-28T09:45:39;101847.72;;;21.66;47.05
59411;BME280;45215;32.610;-115.482;2022-10-28T09:50:52;101848.72;;;21.65;47.09
59411;BME280;45215;32.610;-115.482;2022-10-28T09:54:20;101844.16;;;21.66;47.45
59411;BME280;45215;32.610;-115.482;2022-10-28T09:56:14;101850.59;;;21.65;47.15
59411;BME280;45215;32.610;-115.482;2022-10-28T09:58:42;101847.00;;;21.64;47.39
59411;BME280;45215;32.610;-115.482;2022-10-28T10:01:09;101855.13;;;21.64;46.86
59411;BME280;45215;32.610;-115.482;2022-10-28T10:03:35;101852.41;;;21.64;47.30
59411;BME280;45215;32.610;-115.482;2022-10-28T10:06:26;101855.28;;;21.63;46.46
59411;BME280;45215;32.610;-115.482;2022-10-28T10:08:50;101856.13;;;21.63;46.81
59411;BME280;45215;32.610;-115.482;2022-10-28T10:13:51;101864.22;;;21.63;47.08
59411;BME280;45215;32.610;-115.482;2022-10-28T10:19:04;101864.22;;;21.63;47.23
59411;BME280;45215;32.610;-115.482;2022-10-28T10:21:45;101867.94;;;21.62;47.16
59411;BME280;45215;32.610;-115.482;2022-10-28T10:26:45;101875.03;;;21.63;46.84
59411;BME280;45215;32.610;-115.482;2022-10-28T10:29:11;101874.88;;;21.65;47.12
59411;BME280;45215;32.610;-115.482;2022-10-28T10:31:38;101863.38;;;21.63;47.00
59411;BME280;45215;32.610;-115.482;2022-10-28T10:34:04;101872.34;;;21.63;47.04
59411;BME280;45215;32.610;-115.482;2022-10-28T10:36:30;101876.03;;;21.62;46.80
59411;BME280;45215;32.610;-115.482;2022-10-28T10:38:56;101876.03;;;21.62;46.88
59411;BME280;45215;32.610;-115.482;2022-10-28T10:41:35;101876.03;;;21.62;45.86
59411;BME280;45215;32.610;-115.482;2022-10-28T10:44:35;101876.88;;;21.63;46.94
59411;BME280;45215;32.610;-115.482;2022-10-28T10:49:19;101877.03;;;21.61;46.43
59411;BME280;45215;32.610;-115.482;2022-10-28T10:51:55;101885.97;;;21.61;46.80
59411;BME280;45215;32.610;-115.482;2022-10-28T10:54:22;101880.75;;;21.60;46.52
59411;BME280;45215;32.610;-115.482;2022-10-28T10:56:49;101887.84;;;21.61;46.44
59411;BME280;45215;32.610;-115.482;2022-10-28T10:59:29;101886.16;;;21.60;46.25
59411;BME280;45215;32.610;-115.482;2022-10-28T11:01:55;101892.56;;;21.59;46.53
59411;BME280;45215;32.610;-115.482;2022-10-28T11:04:23;101885.44;;;21.58;45.91
59411;BME280;45215;32.610;-115.482;2022-10-28T11:06:54;101887.16;;;21.59;46.23
59411;BME280;45215;32.610;-115.482;2022-10-28T11:11:49;101890.84;;;21.58;46.16
59411;BME280;45215;32.610;-115.482;2022-10-28T11:14:23;101890.84;;;21.58;46.44
59411;BME280;45215;32.610;-115.482;2022-10-28T11:16:50;101890.00;;;21.57;46.39
59411;BME280;45215;32.610;-115.482;2022-10-28T11:19:37;101908.06;;;21.57;46.28
59411;BME280;45215;32.610;-115.482;2022-10-28T11:24:47;101899.97;;;21.57;46.35
59411;BME280;45215;32.610;-115.482;2022-10-28T11:29:57;101909.06;;;21.56;46.34
59411;BME280;45215;32.610;-115.482;2022-10-28T11:35:12;101912.78;;;21.55;46.39
59411;BME280;45215;32.610;-115.482;2022-10-28T12:05:55;101945.81;;;21.49;45.56
59411;BME280;45215;32.610;-115.482;2022-10-28T12:08:29;101949.53;;;21.48;45.93
59411;BME280;45215;32.610;-115.482;2022-10-28T12:16:05;101950.38;;;21.48;45.81
59411;BME280;45215;32.610;-115.482;2022-10-28T12:18:34;101957.63;;;21.48;45.90
59411;BME280;45215;32.610;-115.482;2022-10-28T12:23:37;101962.31;;;21.46;45.79
59411;BME280;45215;32.610;-115.482;2022-10-28T12:26:04;101963.16;;;21.46;45.47
59411;BME280;45215;32.610;-115.482;2022-10-28T12:29:14;101967.72;;;21.46;45.81
59411;BME280;45215;32.610;-115.482;2022-10-28T12:33:47;101970.56;;;21.44;45.55
59411;BME280;45215;32.610;-115.482;2022-10-28T12:38:59;101973.25;;;21.44;45.83
59411;BME280;45215;32.610;-115.482;2022-10-28T12:41:39;101982.22;;;21.45;45.54
59411;BME280;45215;32.610;-115.482;2022-10-28T12:44:08;101985.91;;;21.44;45.41
59411;BME280;45215;32.610;-115.482;2022-10-28T12:49:19;101993.31;;;21.42;44.95
59411;BME280;45215;32.610;-115.482;2022-10-28T12:51:48;101983.00;;;21.37;45.35
59411;BME280;45215;32.610;-115.482;2022-10-28T12:54:17;101998.72;;;21.42;45.53
59411;BME280;45215;32.610;-115.482;2022-10-28T12:56:53;102000.56;;;21.41;45.74
59411;BME280;45215;32.610;-115.482;2022-10-28T12:59:28;101988.84;;;21.32;45.67
59411;BME280;45215;32.610;-115.482;2022-10-28T13:01:57;101996.19;;;21.40;45.42
59411;BME280;45215;32.610;-115.482;2022-10-28T13:04:26;102002.41;;;21.41;45.59
59411;BME280;45215;32.610;-115.482;2022-10-28T13:07:07;102005.97;;;21.41;45.77
59411;BME280;45215;32.610;-115.482;2022-10-28T13:09:40;101997.88;;;21.41;44.79
59411;BME280;45215;32.610;-115.482;2022-10-28T13:22:26;102015.22;;;21.38;45.51
59411;BME280;45215;32.610;-115.482;2022-10-28T13:27:38;102018.09;;;21.37;44.56
59411;BME280;45215;32.610;-115.482;2022-10-28T13:30:05;102027.16;;;21.36;44.86
59411;BME280;45215;32.610;-115.482;2022-10-28T13:32:36;102031.72;;;21.35;44.78
59411;BME280;45215;32.610;-115.482;2022-10-28T13:35:09;102031.72;;;21.35;45.01
59411;BME280;45215;32.610;-115.482;2022-10-28T13:37:36;102030.88;;;21.35;45.33
59411;BME280;45215;32.610;-115.482;2022-10-28T13:40:03;102027.34;;;21.34;44.95
59411;BME280;45215;32.610;-115.482;2022-10-28T13:42:30;102032.03;;;21.32;45.27
59411;BME280;45215;32.610;-115.482;2022-10-28T13:44:57;102034.59;;;21.34;45.09
59411;BME280;45215;32.610;-115.482;2022-10-28T13:47:34;102033.75;;;21.33;44.82
59411;BME280;45215;32.610;-115.482;2022-10-28T13:52:33;102039.69;;;21.37;45.32
59411;BME280;45215;32.610;-115.482;2022-10-28T13:55:16;102034.13;;;21.38;45.25
59411;BME280;45215;32.610;-115.482;2022-10-28T13:57:45;102036.13;;;21.36;45.02
59411;BME280;45215;32.610;-115.482;2022-10-28T14:05:18;102042.53;;;21.35;45.10
59411;BME280;45215;32.610;-115.482;2022-10-28T14:12:50;102043.69;;;21.33;44.67
59411;BME280;45215;32.610;-115.482;2022-10-28T14:15:18;102044.53;;;21.33;44.74
59411;BME280;45215;32.610;-115.482;2022-10-28T14:17:46;102058.03;;;21.33;44.64
59411;BME280;45215;32.610;-115.482;2022-10-28T14:20:21;102056.31;;;21.32;45.06
59411;BME280;45215;32.610;-115.482;2022-10-28T14:22:48;102042.06;;;21.22;44.59
59411;BME280;45215;32.610;-115.482;2022-10-28T14:27:59;102059.19;;;21.31;44.73
59411;BME280;45215;32.610;-115.482;2022-10-28T14:30:25;102065.56;;;21.30;44.84
59411;BME280;45215;32.610;-115.482;2022-10-28T14:32:57;102068.75;;;21.25;45.20
59411;BME280;45215;32.610;-115.482;2022-10-28T14:35:27;102072.72;;;21.21;45.40
59411;BME280;45215;32.610;-115.482;2022-10-28T14:38:16;102075.59;;;21.20;45.30
59411;BME280;45215;32.610;-115.482;2022-10-28T14:49:13;102104.28;;;21.21;45.27
59411;BME280;45215;32.610;-115.482;2022-10-28T14:51:41;102094.31;;;21.21;44.57
59411;BME280;45215;32.610;-115.482;2022-10-28T14:54:14;102102.41;;;21.21;45.23
59411;BME280;45215;32.610;-115.482;2022-10-28T14:56:40;102092.47;;;21.22;44.86
59411;BME280;45215;32.610;-115.482;2022-10-28T15:02:50;102100.56;;;21.22;44.94
59411;BME280;45215;32.610;-115.482;2022-10-28T15:04:45;102109.53;;;21.22;45.29